Time;durP1;ratioP1;P1;durP2;ratioP2;P2;SDS_P1;SDS_P2;PMS_P1;PMS_P2;Temp;Humidity;BMP_temperature;BMP_pressure;BME280_temperature;BME280_humidity;BME280_pressure;Samples;Min_cycle;Max_cycle;Signal;HPM_P1;HPM_P2
2023/03/02 00:01:51;;;;;;;12.10;5.90;;;;;;;-0.02;72.16;100293.02;107119;1257;71053;-75
2023/03/02 00:04:25;;;;;;;9.10;5.30;;;;;;;-0.08;72.35;100290.39;107475;1257;59570;-73
2023/03/02 00:06:58;;;;;;;11.60;5.60;;;;;;;-0.13;72.38;100288.95;106437;1256;60296;-74
2023/03/02 00:09:28;;;;;;;10.80;5.40;;;;;;;-0.21;72.44;100284.52;106236;1263;73218;-77
2023/03/02 00:11:56;;;;;;;13.20;5.50;;;;;;;-0.28;72.64;100286.82;106010;1257;70693;-76
2023/03/02 00:14:25;;;;;;;11.90;5.40;;;;;;;-0.25;72.75;100286.97;105812;1259;73967;-78
2023/03/02 00:16:52;;;;;;;10.70;6.20;;;;;;;-0.22;72.78;100283.50;105845;1260;59735;-74
2023/03/02 00:19:21;;;;;;;14.10;6.50;;;;;;;-0.30;73.05;100283.64;105845;1257;59697;-76
2023/03/02 00:21:50;;;;;;;14.80;6.60;;;;;;;-0.41;73.30;100281.95;105704;1256;73927;-73
2023/03/02 00:24:18;;;;;;;14.40;6.70;;;;;;;-0.49;73.58;100285.15;105735;1257;71534;-75
2023/03/02 00:26:46;;;;;;;15.40;6.40;;;;;;;-0.55;73.77;100284.67;105593;1255;73900;-76
2023/03/02 00:29:14;;;;;;;9.30;4.80;;;;;;;-0.63;74.02;100284.04;105541;1254;59722;-76
2023/03/02 00:31:43;;;;;;;10.80;4.60;;;;;;;-0.69;74.12;100282.44;105799;1256;60314;-75
2023/03/02 00:34:11;;;;;;;10.40;5.00;;;;;;;-0.62;74.26;100278.40;105649;1257;74264;-75
2023/03/02 00:36:39;;;;;;;10.00;5.10;;;;;;;-0.53;74.29;100277.20;105573;1258;70553;-74
2023/03/02 00:39:08;;;;;;;9.20;4.60;;;;;;;-0.54;74.24;100273.97;105593;1259;70906;-77
2023/03/02 00:41:36;;;;;;;11.00;5.90;;;;;;;-0.57;74.34;100273.95;105650;1254;60475;-72
2023/03/02 00:44:04;;;;;;;11.10;5.50;;;;;;;-0.59;74.54;100268.16;105680;1254;60553;-75
2023/03/02 00:46:32;;;;;;;9.40;4.50;;;;;;;-0.62;74.43;100260.84;105803;1257;73280;-76
2023/03/02 00:49:01;;;;;;;9.30;4.50;;;;;;;-0.63;74.36;100261.39;105767;1254;70896;-77
2023/03/02 00:51:32;;;;;;;10.30;4.30;;;;;;;-0.64;74.26;100261.13;105618;1260;72952;-75
2023/03/02 00:54:03;;;;;;;8.70;4.20;;;;;;;-0.55;74.26;100260.64;105641;1260;61118;-77
2023/03/02 00:56:33;;;;;;;12.70;4.20;;;;;;;-0.47;73.88;100261.43;105820;1254;59604;-75
2023/03/02 00:59:25;;;;;;;10.90;5.80;;;;;;;-0.49;74.10;100265.19;106770;1260;72694;-74
2023/03/02 01:02:05;;;;;;;11.10;5.30;;;;;;;-0.54;74.08;100266.14;106857;1254;69250;-75
2023/03/02 01:04:38;;;;;;;11.50;4.60;;;;;;;-0.58;74.05;100264.60;106785;1256;73863;-74
2023/03/02 01:07:13;;;;;;;9.20;4.10;;;;;;;-0.62;74.13;100260.80;107160;1254;59671;-71
2023/03/02 01:09:43;;;;;;;11.40;4.50;;;;;;;-0.66;74.07;100265.40;107294;1257;61038;-76
2023/03/02 01:12:11;;;;;;;9.60;4.00;;;;;;;-0.70;74.15;100259.70;106172;1256;70902;-74
2023/03/02 01:14:44;;;;;;;7.00;3.50;;;;;;;-0.62;74.11;100257.67;106275;1254;71523;-75
2023/03/02 01:17:13;;;;;;;11.20;4.20;;;;;;;-0.56;73.88;100258.41;107127;1253;72824;-74
2023/03/02 01:19:43;;;;;;;13.10;4.30;;;;;;;-0.62;73.85;100260.46;106351;1254;60159;-76
2023/03/02 01:22:11;;;;;;;10.10;4.80;;;;;;;-0.67;73.93;100263.90;106588;1259;59582;-76
2023/03/02 01:24:42;;;;;;;8.30;4.10;;;;;;;-0.72;73.86;100262.44;106538;1255;72288;-75
2023/03/02 01:27:12;;;;;;;9.40;4.30;;;;;;;-0.78;73.91;100256.29;106390;1256;70655;-74
2023/03/02 01:29:40;;;;;;;7.50;4.60;;;;;;;-0.84;73.96;100252.44;106292;1259;71651;-75
2023/03/02 01:32:08;;;;;;;8.00;4.10;;;;;;;-0.88;74.07;100246.59;106475;1255;61381;-74
2023/03/02 01:34:38;;;;;;;8.30;3.80;;;;;;;-0.82;74.09;100238.42;106207;1255;61202;-74
2023/03/02 01:37:06;;;;;;;11.60;4.60;;;;;;;-0.75;74.12;100233.04;105968;1260;73070;-75
2023/03/02 01:39:34;;;;;;;11.10;5.20;;;;;;;-0.80;74.09;100229.98;106114;1258;70561;-75
2023/03/02 01:42:04;;;;;;;12.80;5.30;;;;;;;-0.86;74.20;100232.21;106329;1257;71808;-76
2023/03/02 01:44:40;;;;;;;11.10;4.90;;;;;;;-0.93;74.29;100227.91;106255;1260;60683;-76
2023/03/02 01:47:12;;;;;;;12.40;4.60;;;;;;;-1.00;74.38;100226.55;106726;1254;59633;-77
2023/03/02 01:49:48;;;;;;;7.60;4.30;;;;;;;-1.06;74.47;100224.24;107497;1254;72699;-76
2023/03/02 01:52:22;;;;;;;10.80;4.50;;;;;;;-1.11;74.66;100225.02;107363;1257;70336;-77
2023/03/02 01:54:52;;;;;;;9.30;4.50;;;;;;;-1.15;74.77;100228.04;107028;1261;71971;-77
2023/03/02 01:57:23;;;;;;;9.60;4.00;;;;;;;-1.04;74.78;100230.05;106908;1254;61110;-76
2023/03/02 01:59:58;;;;;;;9.70;4.30;;;;;;;-0.98;74.59;100236.68;108333;1253;60037;-76
2023/03/02 02:02:26;;;;;;;11.50;4.90;;;;;;;-1.02;74.73;100232.02;107653;1256;72725;-75
2023/03/02 02:04:56;;;;;;;8.10;4.10;;;;;;;-1.05;74.82;100229.45;107817;1256;69398;-76
2023/03/02 02:07:26;;;;;;;8.90;4.30;;;;;;;-1.09;74.88;100225.30;107946;1254;73775;-75
2023/03/02 02:09:55;;;;;;;13.20;5.60;;;;;;;-1.12;74.89;100229.43;107240;1254;60400;-74
2023/03/02 02:12:23;;;;;;;9.80;4.80;;;;;;;-1.17;74.89;100225.88;108009;1260;60503;-75
2023/03/02 02:14:54;;;;;;;12.10;4.50;;;;;;;-1.20;75.03;100225.66;106353;1259;73153;-77
2023/03/02 02:17:29;;;;;;;10.10;4.40;;;;;;;-1.09;74.82;100227.20;106359;1257;68486;-76
2023/03/02 02:20:06;;;;;;;11.50;4.80;;;;;;;-1.04;74.79;100227.80;106518;1260;71402;-77
2023/03/02 02:23:02;;;;;;;8.50;3.90;;;;;;;-1.10;74.77;100224.96;106266;1260;60145;-77
2023/03/02 02:25:42;;;;;;;9.00;4.40;;;;;;;-1.16;75.01;100227.94;106380;1254;61265;-77
2023/03/02 02:28:13;;;;;;;10.30;4.40;;;;;;;-1.20;74.93;100228.27;106350;1256;72607;-76
2023/03/02 02:30:41;;;;;;;12.20;5.00;;;;;;;-1.26;75.07;100233.98;106137;1260;69265;-76
2023/03/02 02:33:13;;;;;;;12.60;4.20;;;;;;;-1.30;75.25;100233.20;106056;1257;71687;-76
2023/03/02 02:35:42;;;;;;;10.00;4.20;;;;;;;-1.33;75.27;100236.77;106007;1260;59685;-75
2023/03/02 02:38:10;;;;;;;6.90;3.60;;;;;;;-1.22;75.27;100231.03;106158;1258;60278;-76
2023/03/02 02:40:51;;;;;;;8.90;3.70;;;;;;;-1.16;75.10;100232.96;106139;1254;73183;-75
2023/03/02 02:43:21;;;;;;;8.60;4.00;;;;;;;-1.20;75.17;100227.25;106339;1260;70964;-78
2023/03/02 02:45:52;;;;;;;10.00;4.20;;;;;;;-1.25;75.37;100217.92;106318;1254;73706;-74
2023/03/02 02:48:23;;;;;;;11.90;4.90;;;;;;;-1.28;75.22;100221.77;106686;1253;59816;-75
2023/03/02 02:50:59;;;;;;;8.50;4.30;;;;;;;-1.32;75.18;100219.89;106583;1260;59926;-73
2023/03/02 02:53:32;;;;;;;15.90;6.40;;;;;;;-1.36;75.39;100221.88;106851;1257;72975;-72
2023/03/02 02:56:01;;;;;;;19.30;8.00;;;;;;;-1.41;75.47;100228.88;106357;1257;71211;-75
2023/03/02 02:58:41;;;;;;;16.90;6.70;;;;;;;-1.40;75.47;100227.58;106373;1256;72307;-77
2023/03/02 03:01:12;;;;;;;15.80;6.70;;;;;;;-1.29;75.27;100230.34;106658;1257;59622;-78
2023/03/02 03:03:46;;;;;;;13.40;6.20;;;;;;;-1.31;75.45;100231.52;106475;1257;60192;-79
2023/03/02 03:06:24;;;;;;;16.40;6.30;;;;;;;-1.37;75.43;100237.03;106660;1252;74035;-79
2023/03/02 03:08:59;;;;;;;14.80;6.00;;;;;;;-1.43;75.69;100232.77;107061;1255;70238;-77
2023/03/02 03:11:39;;;;;;;14.90;5.90;;;;;;;-1.47;75.99;100232.81;109359;1253;71000;-78
2023/03/02 03:14:09;;;;;;;17.40;5.70;;;;;;;-1.49;75.84;100231.23;109552;1254;59541;-77
2023/03/02 03:16:39;;;;;;;10.80;5.20;;;;;;;-1.52;75.85;100233.78;106586;1255;60360;-78
2023/03/02 03:19:21;;;;;;;14.30;5.90;;;;;;;-1.44;75.90;100236.15;106502;1254;72660;-77
2023/03/02 03:21:54;;;;;;;15.60;5.60;;;;;;;-1.35;75.53;100233.08;106582;1254;70541;-78
2023/03/02 03:24:24;;;;;;;9.00;4.90;;;;;;;-1.39;75.79;100233.80;106604;1257;72614;-79
2023/03/02 03:26:53;;;;;;;15.10;5.60;;;;;;;-1.43;75.70;100232.80;108212;1253;59180;-77
2023/03/02 03:29:23;;;;;;;14.20;6.90;;;;;;;-1.46;75.78;100235.05;107778;1254;61644;-77
2023/03/02 03:31:57;;;;;;;16.90;6.80;;;;;;;-1.50;75.90;100236.98;108035;1255;75009;-75
2023/03/02 03:34:27;;;;;;;12.90;6.30;;;;;;;-1.54;75.86;100238.94;108679;1253;69320;-76
2023/03/02 03:37:00;;;;;;;13.40;5.90;;;;;;;-1.57;75.98;100239.97;108477;1253;71892;-78
2023/03/02 03:39:32;;;;;;;13.60;5.10;;;;;;;-1.48;75.95;100240.16;109146;1253;60554;-78
2023/03/02 03:42:00;;;;;;;13.70;5.70;;;;;;;-1.40;75.72;100238.19;109128;1254;58355;-77
2023/03/02 03:44:29;;;;;;;17.50;5.00;;;;;;;-1.43;75.84;100233.64;109059;1253;73987;-76
2023/03/02 03:46:57;;;;;;;10.50;4.40;;;;;;;-1.47;75.99;100227.78;108705;1254;69541;-77
2023/03/02 03:49:26;;;;;;;17.60;5.90;;;;;;;-1.50;76.18;100221.54;108168;1253;71117;-76
2023/03/02 03:51:55;;;;;;;11.90;4.10;;;;;;;-1.54;76.24;100219.67;108157;1254;59339;-76
2023/03/02 03:54:24;;;;;;;15.20;5.80;;;;;;;-1.58;76.31;100217.06;108567;1254;59273;-76
2023/03/02 03:56:54;;;;;;;10.70;5.10;;;;;;;-1.61;76.40;100217.89;108619;1253;72190;-77
2023/03/02 03:59:25;;;;;;;8.90;5.00;;;;;;;-1.51;76.53;100215.14;108212;1254;70365;-76
2023/03/02 04:02:02;;;;;;;12.10;5.40;;;;;;;-1.43;76.26;100214.05;108202;1254;72589;-76
2023/03/02 04:04:41;;;;;;;11.50;5.10;;;;;;;-1.48;76.59;100215.33;109494;1253;60269;-76
2023/03/02 04:07:13;;;;;;;9.00;4.80;;;;;;;-1.54;76.73;100218.77;109305;1253;60324;-75
2023/03/02 04:09:42;;;;;;;9.90;5.40;;;;;;;-1.58;77.10;100216.73;109211;1253;75324;-75
2023/03/02 04:12:20;;;;;;;11.10;5.60;;;;;;;-1.63;77.15;100213.85;109545;1254;70382;-74
2023/03/02 04:14:52;;;;;;;12.20;5.30;;;;;;;-1.65;77.20;100212.23;109288;1254;72667;-76
2023/03/02 04:17:20;;;;;;;10.70;4.30;;;;;;;-1.57;77.13;100215.30;109412;1253;61256;-75
2023/03/02 04:19:51;;;;;;;10.30;4.50;;;;;;;-1.47;77.09;100210.23;109709;1254;60308;-74
2023/03/02 04:22:21;;;;;;;9.70;5.20;;;;;;;-1.47;77.20;100208.33;109668;1253;73773;-75
2023/03/02 04:24:49;;;;;;;8.90;5.10;;;;;;;-1.50;77.46;100208.48;109332;1253;69047;-76
2023/03/02 04:27:18;;;;;;;9.90;5.20;;;;;;;-1.53;77.51;100206.06;109225;1254;72128;-75
2023/03/02 04:29:46;;;;;;;12.80;6.60;;;;;;;-1.58;77.63;100203.32;109376;1254;60561;-73
2023/03/02 04:32:14;;;;;;;14.40;5.70;;;;;;;-1.61;77.81;100206.10;109509;1252;58718;-73
2023/03/02 04:34:47;;;;;;;20.60;10.30;;;;;;;-1.53;77.84;100201.85;109485;1252;73193;-74
2023/03/02 04:37:16;;;;;;;16.60;8.40;;;;;;;-1.44;77.52;100203.30;109279;1253;69354;-76
2023/03/02 04:39:48;;;;;;;18.30;8.80;;;;;;;-1.46;77.72;100209.31;109071;1256;72451;-74
2023/03/02 04:42:20;;;;;;;17.30;6.80;;;;;;;-1.51;78.01;100210.94;109155;1252;58278;-74
2023/03/02 04:44:49;;;;;;;13.00;6.20;;;;;;;-1.52;78.13;100218.85;108784;1252;59633;-74
2023/03/02 04:47:17;;;;;;;13.10;6.00;;;;;;;-1.55;78.36;100220.70;106674;1254;74567;-77
2023/03/02 04:49:46;;;;;;;12.80;5.10;;;;;;;-1.57;78.37;100221.71;106135;1254;70118;-78
2023/03/02 04:52:16;;;;;;;10.10;5.10;;;;;;;-1.49;78.41;100224.77;106247;1254;71908;-77
2023/03/02 04:54:45;;;;;;;11.20;5.70;;;;;;;-1.42;78.27;100229.61;106345;1254;60401;-77
2023/03/02 04:57:13;;;;;;;10.60;5.30;;;;;;;-1.45;78.50;100226.65;106510;1253;60444;-80
2023/03/02 04:59:42;;;;;;;8.90;5.00;;;;;;;-1.48;78.65;100228.21;107036;1253;72581;-78
2023/03/02 05:02:11;;;;;;;14.90;5.50;;;;;;;-1.51;78.88;100233.70;107425;1254;71309;-78
2023/03/02 05:04:40;;;;;;;17.00;7.40;;;;;;;-1.53;78.86;100235.56;106856;1256;72861;-76
2023/03/02 05:07:10;;;;;;;18.20;6.50;;;;;;;-1.54;79.02;100246.73;106943;1254;60380;-75
2023/03/02 05:09:42;;;;;;;12.30;6.30;;;;;;;-1.43;78.79;100247.22;106504;1254;61622;-74
2023/03/02 05:12:10;;;;;;;11.80;6.20;;;;;;;-1.35;78.83;100245.59;106524;1257;73690;-77
2023/03/02 05:14:38;;;;;;;11.60;6.30;;;;;;;-1.38;79.04;100249.58;108433;1254;69578;-77
2023/03/02 05:17:06;;;;;;;11.90;6.20;;;;;;;-1.42;79.22;100251.16;109394;1254;72714;-79
2023/03/02 05:19:35;;;;;;;11.30;5.90;;;;;;;-1.43;79.41;100255.90;107301;1253;60460;-77
2023/03/02 05:22:03;;;;;;;13.40;6.20;;;;;;;-1.41;79.53;100250.91;106382;1254;60860;-73
2023/03/02 05:24:31;;;;;;;13.60;6.90;;;;;;;-1.28;79.48;100258.77;106259;1257;72737;-74
2023/03/02 05:27:05;;;;;;;14.40;6.00;;;;;;;-1.23;79.37;100259.21;106214;1254;71119;-74
2023/03/02 05:29:33;;;;;;;14.30;6.40;;;;;;;-1.23;79.60;100261.96;106365;1254;73829;-75
2023/03/02 05:32:02;;;;;;;14.80;6.70;;;;;;;-1.21;79.70;100261.05;106202;1254;60478;-75
2023/03/02 05:34:31;;;;;;;16.50;7.00;;;;;;;-1.20;79.70;100261.64;106353;1256;60624;-76
2023/03/02 05:36:59;;;;;;;23.10;9.50;;;;;;;-1.14;79.63;100261.53;106294;1254;73981;-73
2023/03/02 05:39:32;;;;;;;25.50;10.20;;;;;;;-0.99;79.35;100260.77;106425;1254;69850;-76
2023/03/02 05:42:01;;;;;;;18.70;9.10;;;;;;;-0.94;79.17;100260.67;106234;1258;73822;-74
2023/03/02 05:44:29;;;;;;;15.30;7.60;;;;;;;-0.95;79.25;100258.09;106222;1254;60469;-76
2023/03/02 05:46:58;;;;;;;18.30;7.20;;;;;;;-0.95;79.45;100258.80;106095;1253;61253;-76
2023/03/02 05:49:26;;;;;;;16.00;6.60;;;;;;;-0.94;79.39;100265.01;106338;1256;73185;-78
2023/03/02 05:51:56;;;;;;;13.50;5.60;;;;;;;-0.91;79.34;100267.96;106225;1254;70678;-74
2023/03/02 05:54:24;;;;;;;12.90;6.20;;;;;;;-0.74;79.20;100270.21;106352;1256;74019;-74
2023/03/02 05:56:55;;;;;;;14.80;7.00;;;;;;;-0.56;78.89;100267.14;106257;1252;60813;-75
2023/03/02 05:59:23;;;;;;;15.60;6.80;;;;;;;-0.49;78.89;100266.92;106161;1254;60352;-74
2023/03/02 06:01:57;;;;;;;16.30;7.20;;;;;;;-0.45;78.99;100271.04;106372;1256;75013;-69
2023/03/02 06:04:25;;;;;;;;;;;;;;;-0.41;78.74;100273.92;106332;1254;70542;-71
2023/03/02 06:06:54;;;;;;;16.20;7.30;;;;;;;-0.38;78.68;100271.72;106285;1256;72049;-74
2023/03/02 06:09:22;;;;;;;13.20;5.90;;;;;;;-0.37;78.73;100275.52;106147;1254;60871;-71
2023/03/02 06:11:51;;;;;;;12.40;6.40;;;;;;;-0.31;78.63;100276.88;106045;1252;61365;-70
2023/03/02 06:14:20;;;;;;;15.40;6.20;;;;;;;-0.14;78.45;100275.93;106240;1256;72740;-68
2023/03/02 06:16:52;;;;;;;15.80;6.70;;;;;;;-0.06;78.16;100274.97;106470;1257;70383;-71
2023/03/02 06:19:23;;;;;;;16.50;8.10;;;;;;;-0.05;78.00;100279.22;106684;1255;73049;-72
2023/03/02 06:21:54;;;;;;;16.00;7.40;;;;;;;-0.03;78.20;100274.06;106477;1254;60482;-73
2023/03/02 06:24:22;;;;;;;16.80;7.60;;;;;;;0.02;77.94;100278.33;106300;1255;60424;-73
2023/03/02 06:26:52;;;;;;;14.00;7.30;;;;;;;0.08;77.88;100281.10;106034;1255;72983;-71
2023/03/02 06:29:21;;;;;;;15.30;7.10;;;;;;;0.20;77.58;100274.38;106198;1253;71671;-70
2023/03/02 06:31:50;;;;;;;14.70;7.10;;;;;;;0.34;77.22;100271.44;106037;1257;70838;-69
2023/03/02 06:34:18;;;;;;;13.70;6.80;;;;;;;0.38;77.36;100271.20;106554;1256;60421;-72
2023/03/02 06:36:46;;;;;;;10.80;6.10;;;;;;;0.44;76.97;100270.17;106367;1254;60335;-73
2023/03/02 06:39:15;;;;;;;15.50;7.50;;;;;;;0.47;76.76;100274.67;106076;1256;73334;-71
2023/03/02 06:41:44;;;;;;;14.70;7.50;;;;;;;0.49;76.51;100275.77;106484;1254;71197;-76
2023/03/02 06:44:15;;;;;;;14.70;7.00;;;;;;;0.50;76.35;100272.60;106272;1254;73198;-73
2023/03/02 06:46:43;;;;;;;14.40;7.30;;;;;;;0.54;76.18;100268.86;106129;1254;62019;-72
2023/03/02 06:49:12;;;;;;;15.30;7.80;;;;;;;0.70;75.98;100268.96;106233;1257;60429;-74
2023/03/02 06:51:41;;;;;;;18.00;8.00;;;;;;;0.85;75.48;100269.98;106172;1256;73350;-75
2023/03/02 06:54:09;;;;;;;15.80;8.30;;;;;;;0.89;75.26;100270.98;106053;1254;69470;-73
2023/03/02 06:56:39;;;;;;;15.70;7.00;;;;;;;0.93;75.01;100264.95;106282;1256;73913;-75
2023/03/02 06:59:08;;;;;;;14.40;8.00;;;;;;;0.98;74.56;100262.22;106172;1253;60480;-75
2023/03/02 07:01:36;;;;;;;11.80;6.80;;;;;;;1.02;74.19;100265.52;106162;1254;60520;-74
2023/03/02 07:04:04;;;;;;;14.60;7.70;;;;;;;1.04;73.97;100261.02;106016;1257;74730;-74
2023/03/02 07:06:36;;;;;;;12.30;7.50;;;;;;;1.07;73.77;100261.52;106227;1254;71433;-75
2023/03/02 07:09:08;;;;;;;19.30;7.40;;;;;;;1.12;73.64;100264.52;106133;1253;72638;-76
2023/03/02 07:11:36;;;;;;;14.00;6.50;;;;;;;1.30;73.48;100261.84;106305;1253;60447;-78
2023/03/02 07:14:08;;;;;;;13.20;7.20;;;;;;;1.43;73.00;100259.94;106875;1254;60780;-76
2023/03/02 07:16:36;;;;;;;15.10;7.50;;;;;;;1.49;72.63;100262.21;107761;1252;74121;-74
2023/03/02 07:19:13;;;;;;;17.90;8.10;;;;;;;1.53;72.36;100260.56;108552;1254;69465;-78
2023/03/02 07:21:47;;;;;;;17.10;8.00;;;;;;;1.63;71.89;100261.16;107558;1252;71395;-76
2023/03/02 07:24:15;;;;;;;13.60;7.20;;;;;;;1.69;71.67;100264.74;106306;1254;60428;-78
2023/03/02 07:26:44;;;;;;;16.70;7.20;;;;;;;1.77;71.38;100260.02;106177;1254;60325;-75
2023/03/02 07:29:12;;;;;;;15.80;7.20;;;;;;;1.84;70.95;100258.92;106379;1259;73312;-76
2023/03/02 07:31:43;;;;;;;12.40;7.00;;;;;;;1.90;70.63;100258.38;106515;1257;70987;-74
2023/03/02 07:34:12;;;;;;;13.50;7.20;;;;;;;1.96;70.35;100259.34;106525;1256;73872;-76
2023/03/02 07:36:40;;;;;;;17.20;7.90;;;;;;;2.03;70.08;100257.17;106345;1254;60626;-73
2023/03/02 07:39:08;;;;;;;12.90;6.60;;;;;;;2.09;69.44;100256.54;106178;1260;60538;-72
2023/03/02 07:41:37;;;;;;;14.20;7.50;;;;;;;2.15;69.40;100259.16;106436;1259;73062;-74
2023/03/02 07:44:06;;;;;;;13.00;6.60;;;;;;;2.22;68.99;100259.39;106490;1254;71470;-75
2023/03/02 07:46:34;;;;;;;13.60;6.60;;;;;;;2.29;68.68;100255.11;106271;1253;73681;-74
2023/03/02 07:49:03;;;;;;;13.20;6.30;;;;;;;2.36;68.07;100251.45;106304;1254;60436;-73
2023/03/02 07:51:31;;;;;;;15.20;6.80;;;;;;;2.42;67.98;100248.65;106502;1254;60634;-74
2023/03/02 07:54:01;;;;;;;11.40;6.60;;;;;;;2.47;67.78;100249.16;106319;1255;73726;-74
2023/03/02 07:56:30;;;;;;;11.60;6.40;;;;;;;2.56;67.99;100244.39;106338;1254;71306;-72
2023/03/02 07:58:59;;;;;;;16.90;7.10;;;;;;;2.67;67.52;100243.30;106256;1254;73718;-73
2023/03/02 08:01:28;;;;;;;16.00;6.60;;;;;;;2.77;67.10;100240.31;106293;1256;60451;-71
2023/03/02 08:03:57;;;;;;;11.00;6.00;;;;;;;2.86;66.80;100237.58;106059;1253;60530;-72
2023/03/02 08:06:28;;;;;;;10.10;6.20;;;;;;;2.96;66.31;100233.39;106239;1255;73497;-73
2023/03/02 08:08:59;;;;;;;13.40;6.90;;;;;;;3.06;66.03;100230.11;106575;1254;69701;-75
2023/03/02 08:11:27;;;;;;;11.20;6.20;;;;;;;3.18;65.96;100229.75;106652;1254;72785;-77
2023/03/02 08:14:01;;;;;;;12.80;6.50;;;;;;;3.29;65.51;100227.59;106448;1252;60450;-75
2023/03/02 08:16:29;;;;;;;12.10;6.50;;;;;;;3.39;65.35;100227.55;106243;1252;60284;-75
2023/03/02 08:18:58;;;;;;;11.90;6.80;;;;;;;3.50;64.95;100227.69;108179;1254;73684;-73
2023/03/02 08:21:28;;;;;;;11.20;6.30;;;;;;;3.62;64.44;100219.97;109063;1253;69327;-76
2023/03/02 08:24:03;;;;;;;15.00;6.40;;;;;;;3.75;64.57;100225.64;107818;1254;70349;-77
2023/03/02 08:26:32;;;;;;;12.30;6.10;;;;;;;3.90;64.47;100221.73;106824;1254;60414;-76
2023/03/02 08:29:01;;;;;;;12.00;6.40;;;;;;;4.07;63.70;100223.11;106526;1253;60334;-75
2023/03/02 08:31:29;;;;;;;13.90;6.50;;;;;;;4.19;62.93;100225.95;106531;1256;72810;-75
2023/03/02 08:33:59;;;;;;;10.90;6.00;;;;;;;4.26;62.07;100221.92;106594;1254;71811;-71
2023/03/02 08:36:33;;;;;;;18.20;7.40;;;;;;;4.30;61.72;100225.25;106288;1253;72430;-73
2023/03/02 08:39:02;;;;;;;12.80;6.30;;;;;;;4.37;61.96;100225.99;106504;1254;60534;-76
2023/03/02 08:41:30;;;;;;;10.50;5.90;;;;;;;4.47;61.92;100225.73;106350;1253;60576;-74
2023/03/02 08:44:03;;;;;;;14.50;6.90;;;;;;;4.63;61.74;100221.73;106317;1254;74795;-75
2023/03/02 08:46:35;;;;;;;12.60;6.70;;;;;;;4.83;61.47;100217.89;106171;1254;69328;-72
2023/03/02 08:49:03;;;;;;;12.70;6.60;;;;;;;5.02;61.10;100216.02;106355;1254;71489;-75
2023/03/02 08:51:31;;;;;;;14.00;6.30;;;;;;;5.20;59.84;100208.48;106321;1254;60405;-73
2023/03/02 08:54:01;;;;;;;10.10;6.00;;;;;;;5.29;59.56;100206.53;106177;1254;61507;-74
2023/03/02 08:56:31;;;;;;;14.60;6.30;;;;;;;5.35;58.97;100207.79;106328;1256;74174;-72
2023/03/02 08:59:02;;;;;;;10.40;6.30;;;;;;;5.42;59.07;100206.90;106264;1254;68921;-72
2023/03/02 09:01:32;;;;;;;9.70;5.90;;;;;;;5.52;58.84;100210.17;105934;1258;72845;-74
2023/03/02 09:04:03;;;;;;;12.50;7.00;;;;;;;5.58;58.43;100212.61;106190;1254;60955;-73
2023/03/02 09:06:39;;;;;;;11.00;5.80;;;;;;;5.65;58.57;100211.02;106155;1254;60748;-75
2023/03/02 09:09:07;;;;;;;;;;;;;;;5.76;58.15;100212.64;106322;1256;73889;-76
2023/03/02 09:11:37;;;;;;;11.50;6.60;;;;;;;5.86;58.17;100207.03;106397;1252;71238;-75
2023/03/02 09:14:05;;;;;;;14.90;7.10;;;;;;;6.13;58.25;100204.48;106404;1254;72797;-74
2023/03/02 09:16:33;;;;;;;12.10;6.20;;;;;;;6.54;57.86;100202.09;106367;1254;60536;-74
2023/03/02 09:19:04;;;;;;;11.90;6.20;;;;;;;7.06;56.77;100198.81;106945;1254;60521;-71
2023/03/02 09:21:34;;;;;;;10.40;5.80;;;;;;;7.53;54.39;100197.52;108110;1254;73664;-75
2023/03/02 09:24:04;;;;;;;8.50;5.50;;;;;;;7.84;53.21;100198.59;108088;1253;69563;-74
2023/03/02 09:26:34;;;;;;;11.00;5.50;;;;;;;8.14;52.37;100199.09;106387;1256;73846;-75
2023/03/02 09:29:05;;;;;;;9.40;6.10;;;;;;;8.43;51.76;100198.02;107313;1256;60417;-76
2023/03/02 09:31:34;;;;;;;9.70;6.30;;;;;;;8.69;50.83;100197.16;106803;1256;60437;-75
2023/03/02 09:34:04;;;;;;;9.50;6.00;;;;;;;9.01;50.19;100193.46;106935;1256;75054;-74
2023/03/02 09:36:33;;;;;;;8.60;6.20;;;;;;;9.37;49.04;100192.23;106838;1253;70572;-76
2023/03/02 09:39:07;;;;;;;8.50;6.10;;;;;;;9.90;49.14;100191.11;106825;1253;73477;-74
2023/03/02 09:41:54;;;;;;;7.50;5.80;;;;;;;10.73;48.64;100191.11;106720;1256;61578;-74
2023/03/02 09:44:35;;;;;;;9.50;5.90;;;;;;;11.76;45.91;100189.91;106766;1253;60456;-74
2023/03/02 09:47:08;;;;;;;9.10;6.80;;;;;;;12.36;44.47;100189.11;106603;1254;74763;-75
2023/03/02 09:49:43;;;;;;;10.10;6.40;;;;;;;12.89;44.28;100182.21;106761;1254;69410;-74
2023/03/02 09:52:18;;;;;;;11.20;5.50;;;;;;;13.65;43.10;100181.38;106750;1253;73326;-73
2023/03/02 09:54:47;;;;;;;10.60;6.70;;;;;;;14.34;41.39;100181.32;106960;1253;60325;-74
2023/03/02 09:57:31;;;;;;;8.90;6.70;;;;;;;14.71;40.52;100179.48;106711;1252;60678;-72
2023/03/02 10:00:03;;;;;;;11.40;7.30;;;;;;;14.90;38.89;100180.45;106793;1254;74829;-74
2023/03/02 10:02:55;;;;;;;13.10;5.80;;;;;;;14.70;38.08;100178.66;106759;1254;71482;-73
2023/03/02 10:05:46;;;;;;;12.60;6.30;;;;;;;14.60;38.13;100181.98;108305;1253;71389;-72
2023/03/02 10:08:25;;;;;;;6.60;5.00;;;;;;;14.60;37.29;100182.55;109412;1252;58580;-75
2023/03/02 10:11:21;;;;;;;8.10;5.30;;;;;;;14.43;37.29;100171.70;108109;1252;60448;-74
2023/03/02 10:14:11;;;;;;;6.40;4.50;;;;;;;14.38;37.63;100172.20;108862;1253;73712;-73
2023/03/02 10:16:47;;;;;;;7.70;5.10;;;;;;;14.36;37.22;100170.98;108738;1254;68838;-73
2023/03/02 10:19:33;;;;;;;5.20;4.20;;;;;;;14.39;37.82;100171.11;109106;1253;71688;-74
2023/03/02 10:22:06;;;;;;;8.10;5.60;;;;;;;14.63;37.78;100162.92;108912;1253;60556;-74
2023/03/02 10:24:49;;;;;;;8.10;5.60;;;;;;;14.90;37.07;100167.25;108400;1256;60310;-74
2023/03/02 10:27:36;;;;;;;8.50;4.80;;;;;;;15.18;37.00;100166.98;108381;1253;72849;-71
2023/03/02 10:30:16;;;;;;;7.60;5.00;;;;;;;15.54;36.04;100166.84;108186;1253;70403;-74
2023/03/02 10:32:47;;;;;;;9.30;4.70;;;;;;;15.53;35.43;100163.27;108577;1253;70715;-73
2023/03/02 10:35:18;;;;;;;7.00;4.80;;;;;;;15.55;35.33;100158.90;107711;1254;60452;-73
2023/03/02 10:37:46;;;;;;;6.40;5.00;;;;;;;15.64;35.23;100162.05;107438;1252;60377;-73
2023/03/02 10:40:45;;;;;;;9.60;5.60;;;;;;;15.71;35.30;100153.67;109467;1253;71467;-73
2023/03/02 10:43:21;;;;;;;6.30;4.90;;;;;;;15.84;35.32;100156.16;109488;1253;69341;-74
2023/03/02 10:45:58;;;;;;;9.30;5.30;;;;;;;15.97;35.20;100155.75;109347;1252;71677;-77
2023/03/02 10:48:29;;;;;;;4.30;3.90;;;;;;;16.31;34.36;100154.55;107375;1253;59247;-74
2023/03/02 10:50:59;;;;;;;6.00;4.60;;;;;;;16.55;33.67;100153.14;106608;1254;59686;-73
2023/03/02 10:53:28;;;;;;;5.20;4.30;;;;;;;16.61;34.22;100146.49;106204;1254;74365;-77
2023/03/02 10:55:56;;;;;;;6.60;4.60;;;;;;;17.10;34.06;100142.25;106017;1254;68459;-75
2023/03/02 10:58:31;;;;;;;7.80;5.20;;;;;;;17.61;33.26;100141.86;106016;1254;72866;-73
2023/03/02 11:01:04;;;;;;;7.30;5.20;;;;;;;17.52;32.66;100142.95;106434;1254;60439;-72
2023/03/02 11:03:33;;;;;;;7.70;5.20;;;;;;;16.82;32.90;100144.48;106354;1254;61610;-76
2023/03/02 11:06:18;;;;;;;7.60;4.50;;;;;;;16.32;33.44;100145.57;106161;1253;73053;-75
2023/03/02 11:09:03;;;;;;;6.30;4.50;;;;;;;16.18;33.70;100147.90;106324;1254;69544;-73
2023/03/02 11:11:31;;;;;;;6.70;4.50;;;;;;;16.25;33.38;100143.73;105917;1253;306940;-74
2023/03/02 11:16:16;;;;;;;6.50;4.20;;;;;;;16.57;33.04;100144.45;103265;1292;600871;-77
2023/03/02 11:18:50;;;;;;;6.80;3.60;;;;;;;16.64;32.02;100141.73;105164;1267;60362;-75
2023/03/02 11:21:36;;;;;;;;;;;;;;;16.57;32.31;100141.68;105448;1266;60182;-75
2023/03/02 11:24:23;;;;;;;6.00;3.90;;;;;;;16.46;32.63;100139.31;107446;1266;72472;-76
2023/03/02 11:26:55;;;;;;;4.20;3.50;;;;;;;16.50;32.68;100130.17;108264;1266;70743;-78
2023/03/02 11:29:42;;;;;;;5.30;4.20;;;;;;;16.69;32.45;100129.13;107246;1269;169381;-78
2023/03/02 11:32:19;;;;;;;6.80;4.30;;;;;;;16.86;32.42;100130.26;105876;1262;61289;-75
2023/03/02 11:34:55;;;;;;;6.50;4.60;;;;;;;17.41;32.47;100122.10;105635;1260;60177;-79
2023/03/02 11:37:35;;;;;;;7.90;4.30;;;;;;;18.44;32.07;100120.34;105193;1266;72398;-79